createdAt,value
2022-11-19T00:00:24.830Z,87.07
2022-11-19T00:01:24.829Z,87.39
2022-11-19T00:02:24.806Z,87.81
2022-11-19T00:03:24.815Z,87.81
2022-11-19T00:04:24.779Z,87.81
2022-11-19T00:05:24.775Z,87.91
2022-11-19T00:06:24.783Z,87.60
2022-11-19T00:07:24.827Z,87.91
2022-11-19T00:08:24.718Z,88.12
2022-11-19T00:09:26.237Z,88.12
2022-11-19T00:10:24.789Z,88.12
2022-11-19T00:11:25.717Z,88.32
2022-11-19T00:12:24.689Z,88.18
2022-11-19T00:13:24.690Z,88.01
2022-11-19T00:14:24.668Z,87.70
2022-11-19T00:15:24.701Z,87.81
2022-11-19T00:16:24.639Z,87.70
2022-11-19T00:17:24.664Z,87.60
2022-11-19T00:18:24.612Z,87.70
2022-11-19T00:19:24.644Z,88.01
2022-11-19T00:20:24.610Z,88.22
2022-11-19T00:21:24.622Z,88.22
2022-11-19T00:22:24.571Z,87.91
2022-11-19T00:23:24.669Z,87.49
2022-11-19T00:24:24.563Z,87.49
2022-11-19T00:25:24.585Z,87.60
2022-11-19T00:26:24.553Z,87.70
2022-11-19T00:27:24.570Z,87.81
2022-11-19T00:28:24.504Z,88.08
2022-11-19T00:29:24.679Z,88.29
2022-11-19T00:30:46.846Z,88.08
2022-11-19T00:31:26.966Z,87.35
2022-11-19T00:32:24.473Z,87.28
2022-11-19T00:33:24.498Z,87.39
2022-11-19T00:34:24.434Z,87.39
2022-11-19T00:35:24.455Z,86.97
2022-11-19T00:36:24.415Z,86.87
2022-11-19T00:37:24.454Z,87.07
2022-11-19T00:38:24.402Z,87.49
2022-11-19T00:39:24.412Z,87.60
2022-11-19T00:40:24.380Z,87.28
2022-11-19T00:41:24.402Z,87.60
2022-11-19T00:42:24.366Z,87.60
2022-11-19T00:43:24.375Z,87.70
2022-11-19T00:44:24.338Z,88.01
2022-11-19T00:45:24.353Z,87.28
2022-11-19T00:46:24.319Z,87.07
2022-11-19T00:47:24.343Z,87.28
2022-11-19T00:48:24.301Z,87.49
2022-11-19T00:49:24.308Z,87.81
2022-11-19T00:50:25.739Z,88.01
2022-11-19T00:51:25.768Z,88.12
2022-11-19T00:52:24.271Z,87.81
2022-11-19T00:53:24.259Z,87.28
2022-11-19T00:54:24.238Z,87.28
2022-11-19T00:55:24.245Z,87.28
2022-11-19T00:56:24.386Z,86.87
2022-11-19T00:57:24.219Z,86.87
2022-11-19T00:58:24.177Z,86.55
2022-11-19T00:59:24.216Z,85.82
2022-11-19T01:00:24.170Z,86.66
2022-11-19T01:01:24.276Z,86.97
2022-11-19T01:02:24.146Z,86.49
2022-11-19T01:03:24.171Z,85.97
2022-11-19T01:04:24.133Z,86.80
2022-11-19T01:05:24.141Z,86.69
2022-11-19T01:06:24.161Z,86.53
2022-11-19T01:07:24.158Z,86.94
2022-11-19T01:08:24.091Z,87.47
2022-11-19T01:09:24.102Z,87.68
2022-11-19T01:10:24.058Z,87.15
2022-11-19T01:11:24.064Z,87.53
2022-11-19T01:12:24.061Z,87.43
2022-11-19T01:13:24.050Z,87.32
2022-11-19T01:14:24.027Z,87.12
2022-11-19T01:15:24.024Z,86.91
2022-11-19T01:16:25.470Z,86.69
2022-11-19T01:17:25.474Z,86.80
2022-11-19T01:18:23.982Z,87.12
2022-11-19T01:19:23.994Z,87.01
2022-11-19T01:20:24.006Z,86.91
2022-11-19T01:21:23.995Z,87.12
2022-11-19T01:22:23.925Z,86.49
2022-11-19T01:23:23.946Z,87.12
2022-11-19T01:24:23.925Z,87.22
2022-11-19T01:25:23.929Z,87.12
2022-11-19T01:26:23.900Z,86.91
2022-11-19T01:27:23.906Z,87.01
2022-11-19T01:28:23.872Z,87.01
2022-11-19T01:29:23.878Z,86.18
2022-11-19T01:30:23.855Z,86.21
2022-11-19T01:31:23.875Z,86.63
2022-11-19T01:32:23.861Z,86.32
2022-11-19T01:33:23.842Z,86.43
2022-11-19T01:34:23.805Z,86.63
2022-11-19T01:35:23.821Z,86.32
2022-11-19T01:36:23.784Z,86.74
2022-11-19T01:37:23.818Z,87.37
2022-11-19T01:38:23.747Z,87.88
2022-11-19T01:39:23.778Z,87.47
2022-11-19T01:40:23.738Z,87.15
2022-11-19T01:41:23.779Z,87.26
2022-11-19T01:42:25.184Z,87.01
2022-11-19T01:43:25.196Z,86.59
2022-11-19T01:44:23.701Z,86.69
2022-11-19T01:45:23.716Z,85.97
2022-11-19T01:46:23.689Z,85.97
2022-11-19T01:47:23.710Z,86.00
2022-11-19T01:48:23.657Z,85.27
2022-11-19T01:49:23.670Z,85.59
2022-11-19T01:50:23.634Z,85.90
2022-11-19T01:51:23.796Z,86.32
2022-11-19T01:52:23.630Z,86.43
2022-11-19T01:53:23.616Z,85.90
2022-11-19T01:54:23.595Z,84.96
2022-11-19T01:55:23.619Z,84.86
2022-11-19T01:56:23.566Z,85.27
2022-11-19T01:57:23.598Z,85.59
2022-11-19T01:58:23.541Z,85.17
2022-11-19T01:59:23.571Z,84.65
2022-11-19T02:00:23.546Z,84.55
2022-11-19T02:01:23.648Z,84.02
2022-11-19T02:02:24.473Z,84.65
2022-11-19T02:03:23.626Z,83.85
2022-11-19T02:04:23.484Z,84.69
2022-11-19T02:05:23.488Z,85.21
2022-11-19T02:06:23.456Z,85.21
2022-11-19T02:07:23.506Z,85.42
2022-11-19T02:08:23.457Z,85.38
2022-11-19T02:09:23.430Z,85.27
2022-11-19T02:10:23.445Z,84.96
2022-11-19T02:11:23.399Z,84.75
2022-11-19T02:12:23.432Z,84.55
2022-11-19T02:13:23.426Z,84.65
2022-11-19T02:14:23.390Z,84.44
2022-11-19T02:15:23.366Z,84.02
2022-11-19T02:16:23.376Z,84.02
2022-11-19T02:17:23.356Z,84.34
2022-11-19T02:18:23.376Z,84.75
2022-11-19T02:19:23.805Z,84.86
2022-11-19T02:20:23.328Z,84.34
2022-11-19T02:21:23.312Z,84.02
2022-11-19T02:22:23.309Z,83.33
2022-11-19T02:23:23.292Z,83.85
2022-11-19T02:24:23.298Z,83.85
2022-11-19T02:25:23.277Z,84.17
2022-11-19T02:26:23.276Z,84.17
2022-11-19T02:27:23.257Z,83.95
2022-11-19T02:28:24.712Z,84.06
2022-11-19T02:29:23.219Z,84.27
2022-11-19T02:30:23.272Z,84.48
2022-11-19T02:31:23.191Z,84.48
2022-11-19T02:32:23.215Z,84.75
2022-11-19T02:33:23.183Z,84.44
2022-11-19T02:34:23.190Z,84.23
2022-11-19T02:35:23.162Z,84.23
2022-11-19T02:36:23.182Z,84.12
2022-11-19T02:37:23.129Z,84.23
2022-11-19T02:38:23.166Z,83.50
2022-11-19T02:39:23.106Z,83.50
2022-11-19T02:40:23.234Z,83.92
2022-11-19T02:41:23.088Z,83.81
2022-11-19T02:42:23.109Z,84.02
2022-11-19T02:43:24.533Z,83.50
2022-11-19T02:44:23.082Z,83.29
2022-11-19T02:45:23.042Z,83.33
2022-11-19T02:46:23.068Z,83.50
2022-11-19T02:47:23.042Z,83.81
2022-11-19T02:48:23.052Z,83.50
2022-11-19T02:49:23.019Z,82.87
2022-11-19T02:50:23.020Z,82.25
2022-11-19T02:51:22.986Z,82.56
2022-11-19T02:52:22.996Z,82.98
2022-11-19T02:53:22.978Z,81.97
2022-11-19T02:54:24.459Z,81.45
2022-11-19T02:55:24.413Z,81.45
2022-11-19T02:56:22.957Z,82.18
2022-11-19T02:57:22.925Z,82.60
2022-11-19T02:58:22.934Z,82.39
2022-11-19T02:59:22.917Z,82.60
2022-11-19T03:00:22.912Z,82.70
2022-11-19T03:01:22.917Z,82.70
2022-11-19T03:02:22.885Z,83.01
2022-11-19T03:03:22.866Z,83.01
2022-11-19T03:04:22.874Z,83.01
2022-11-19T03:05:22.876Z,82.07
2022-11-19T03:06:22.845Z,81.49
2022-11-19T03:07:22.906Z,81.38
2022-11-19T03:08:22.843Z,82.74
2022-11-19T03:09:22.808Z,83.47
2022-11-19T03:10:22.821Z,83.26
2022-11-19T03:11:22.760Z,82.95
2022-11-19T03:12:22.781Z,83.06
2022-11-19T03:13:22.768Z,83.06
2022-11-19T03:14:23.437Z,83.06
2022-11-19T03:15:24.198Z,83.23
2022-11-19T03:16:22.756Z,83.23
2022-11-19T03:17:22.698Z,83.23
2022-11-19T03:18:22.724Z,83.01
2022-11-19T03:19:22.681Z,82.39
2022-11-19T03:20:22.699Z,82.39
2022-11-19T03:21:22.893Z,82.39
2022-11-19T03:22:22.670Z,82.50
2022-11-19T03:23:22.630Z,82.50
2022-11-19T03:24:22.647Z,82.18
2022-11-19T03:25:22.622Z,82.07
2022-11-19T03:26:22.648Z,80.62
2022-11-19T03:27:22.603Z,80.72
2022-11-19T03:28:22.611Z,80.72
2022-11-19T03:29:22.571Z,80.72
2022-11-19T03:30:22.600Z,81.03
2022-11-19T03:31:22.575Z,81.35
2022-11-19T03:32:22.576Z,81.76
2022-11-19T03:33:22.542Z,81.76
2022-11-19T03:34:24.042Z,81.87
2022-11-19T03:35:23.972Z,81.97
2022-11-19T03:36:22.548Z,82.29
2022-11-19T03:37:22.503Z,82.07
2022-11-19T03:38:22.771Z,81.76
2022-11-19T03:39:23.263Z,80.62
2022-11-19T03:40:23.968Z,80.51
2022-11-19T03:41:22.443Z,80.55
2022-11-19T03:42:22.463Z,80.34
2022-11-19T03:43:22.425Z,79.50
2022-11-19T03:44:22.439Z,79.92
2022-11-19T03:45:22.422Z,80.13
2022-11-19T03:46:23.397Z,80.34
2022-11-19T03:47:23.330Z,80.55
2022-11-19T03:48:22.406Z,80.65
2022-11-19T03:49:22.374Z,80.13
2022-11-19T03:50:22.395Z,79.71
2022-11-19T03:51:22.344Z,79.40
2022-11-19T03:52:23.805Z,79.40
2022-11-19T03:53:22.327Z,79.50
2022-11-19T03:54:22.337Z,78.98
2022-11-19T03:55:22.300Z,79.40
2022-11-19T03:56:22.331Z,80.02
2022-11-19T03:57:22.302Z,80.55
2022-11-19T03:58:22.293Z,79.92
2022-11-19T03:59:26.703Z,80.02
2022-11-19T04:00:23.268Z,79.40
2022-11-19T04:01:22.310Z,78.49
2022-11-19T04:02:22.275Z,79.44
2022-11-19T04:03:22.209Z,79.33
2022-11-19T04:04:22.229Z,78.35
2022-11-19T04:05:22.209Z,78.46
2022-11-19T04:06:22.214Z,78.46
2022-11-19T04:07:22.313Z,78.67
2022-11-19T04:08:22.182Z,78.98
2022-11-19T04:09:22.468Z,78.46
2022-11-19T04:10:22.174Z,78.46
2022-11-19T04:12:21.133Z,78.77
2022-11-19T04:13:21.098Z,78.67
2022-11-19T04:14:22.551Z,78.46
2022-11-19T04:15:21.338Z,78.35
2022-11-19T04:16:21.078Z,78.35
2022-11-19T04:17:21.038Z,78.25
2022-11-19T04:18:21.077Z,78.35
2022-11-19T04:19:21.401Z,77.83
2022-11-19T04:20:21.047Z,77.41
2022-11-19T04:21:20.999Z,77.83
2022-11-19T04:22:21.033Z,78.46
2022-11-19T04:23:20.998Z,77.62
2022-11-19T04:24:20.999Z,77.62
2022-11-19T04:25:20.959Z,77.83
2022-11-19T04:26:21.089Z,77.97
2022-11-19T04:27:21.788Z,77.97
2022-11-19T04:28:21.023Z,78.18
2022-11-19T04:29:21.244Z,78.18
2022-11-19T04:30:20.967Z,78.35
2022-11-19T04:31:20.893Z,78.14
2022-11-19T04:32:22.360Z,78.14
2022-11-19T04:33:22.339Z,78.14
2022-11-19T04:34:20.893Z,77.51
2022-11-19T04:35:20.853Z,77.94
2022-11-19T04:36:20.863Z,78.35
2022-11-19T04:37:20.826Z,78.56
2022-11-19T04:38:20.838Z,78.77
2022-11-19T04:39:21.268Z,78.04
2022-11-19T04:40:20.842Z,77.94
2022-11-19T04:41:20.780Z,77.94
2022-11-19T04:42:20.798Z,76.72
2022-11-19T04:43:20.784Z,77.45
2022-11-19T04:44:20.803Z,77.76
2022-11-19T04:45:20.779Z,77.76
2022-11-19T04:46:20.762Z,77.03
2022-11-19T04:47:20.717Z,76.51
2022-11-19T04:48:20.728Z,77.34
2022-11-19T04:49:20.930Z,77.66
2022-11-19T04:50:20.723Z,77.66
2022-11-19T04:51:20.684Z,77.76
2022-11-19T04:52:22.185Z,77.66
2022-11-19T04:53:22.116Z,77.55
2022-11-19T04:54:20.677Z,77.87
2022-11-19T04:55:20.670Z,77.76
2022-11-19T04:56:20.661Z,77.14
2022-11-19T04:57:20.650Z,76.61
2022-11-19T04:58:20.610Z,77.45
2022-11-19T04:59:20.892Z,77.45
2022-11-19T05:00:20.617Z,76.96
2022-11-19T05:01:20.771Z,76.65
2022-11-19T05:02:20.551Z,77.38
2022-11-19T05:03:20.613Z,77.80
2022-11-19T05:04:20.567Z,78.11
2022-11-19T05:05:20.562Z,78.42
2022-11-19T05:06:20.556Z,78.32
2022-11-19T05:07:20.593Z,77.59
2022-11-19T05:08:21.974Z,78.11
2022-11-19T05:09:21.165Z,78.11
2022-11-19T05:10:20.469Z,77.59
2022-11-19T05:11:20.476Z,78.11
2022-11-19T05:12:20.453Z,78.74
2022-11-19T05:13:20.457Z,78.15
2022-11-19T05:14:20.448Z,77.94
2022-11-19T05:15:20.440Z,78.36
2022-11-19T05:16:20.419Z,78.63
2022-11-19T05:17:20.458Z,78.53
2022-11-19T05:18:20.400Z,78.63
2022-11-19T05:19:20.892Z,78.67
2022-11-19T05:20:20.423Z,77.83
2022-11-19T05:21:20.393Z,77.42
2022-11-19T05:22:20.336Z,77.38
2022-11-19T05:23:20.354Z,75.84
2022-11-19T05:24:20.331Z,75.84
2022-11-19T05:25:20.333Z,76.57
2022-11-19T05:26:20.311Z,76.68
2022-11-19T05:27:20.310Z,76.47
2022-11-19T05:28:32.809Z,76.79
2022-11-19T05:29:21.640Z,76.68
2022-11-19T05:30:20.265Z,77.10
2022-11-19T05:31:20.276Z,77.83
2022-11-19T05:32:20.225Z,78.25
2022-11-19T05:33:20.242Z,78.25
2022-11-19T05:34:20.209Z,78.15
2022-11-19T05:35:20.247Z,78.36
2022-11-19T05:36:20.208Z,78.46
2022-11-19T05:37:21.156Z,78.25
2022-11-19T05:38:21.143Z,77.94
2022-11-19T05:39:22.104Z,78.04
2022-11-19T05:40:20.143Z,78.60
2022-11-19T05:41:20.156Z,79.33
2022-11-19T05:42:20.121Z,79.86
2022-11-19T05:43:20.133Z,79.54
2022-11-19T05:44:20.116Z,80.07
2022-11-19T05:45:20.117Z,80.38
2022-11-19T05:46:20.083Z,80.90
2022-11-19T05:47:20.096Z,81.22
2022-11-19T05:48:20.081Z,80.90
2022-11-19T05:49:20.471Z,80.80
2022-11-19T05:50:20.081Z,81.43
2022-11-19T05:51:20.098Z,81.53
2022-11-19T05:52:20.091Z,81.74
2022-11-19T05:53:20.168Z,81.12
2022-11-19T05:54:21.552Z,80.90
2022-11-19T05:55:20.114Z,80.80
2022-11-19T05:56:21.438Z,80.49
2022-11-19T05:57:21.442Z,80.17
2022-11-19T05:58:20.098Z,80.63
2022-11-19T05:59:20.195Z,80.90
2022-11-19T06:00:19.943Z,80.17
2022-11-19T06:01:19.959Z,80.21
2022-11-19T06:02:19.899Z,80.31
2022-11-19T06:03:20.083Z,80.42
2022-11-19T06:04:20.113Z,81.15
2022-11-19T06:05:19.911Z,81.67
2022-11-19T06:06:19.880Z,81.88
2022-11-19T06:07:20.151Z,81.04
2022-11-19T06:08:20.082Z,80.73
2022-11-19T06:09:20.092Z,80.46
2022-11-19T06:10:19.911Z,81.23
2022-11-19T06:11:20.094Z,81.96
2022-11-19T06:12:19.816Z,82.48
2022-11-19T06:13:19.805Z,82.90
2022-11-19T06:14:19.767Z,82.06
2022-11-19T06:15:19.784Z,81.54
2022-11-19T06:16:19.749Z,81.75
2022-11-19T06:17:19.776Z,81.47
2022-11-19T06:18:19.731Z,82.10
2022-11-19T06:19:20.223Z,82.52
2022-11-19T06:20:19.703Z,83.15
2022-11-19T06:21:19.722Z,83.36
2022-11-19T06:22:19.704Z,83.47
2022-11-19T06:23:19.695Z,83.01
2022-11-19T06:24:19.662Z,83.11
2022-11-19T06:25:19.703Z,83.32
2022-11-19T06:26:19.644Z,82.42
2022-11-19T06:27:19.668Z,82.73
2022-11-19T06:28:19.613Z,83.32
2022-11-19T06:29:21.544Z,82.79
2022-11-19T06:30:19.616Z,81.99
2022-11-19T06:31:19.615Z,82.10
2022-11-19T06:32:19.584Z,82.94
2022-11-19T06:33:19.835Z,83.36
2022-11-19T06:34:19.732Z,83.57
2022-11-19T06:35:19.614Z,83.15
2022-11-19T06:36:19.681Z,82.94
2022-11-19T06:37:19.754Z,83.15
2022-11-19T06:38:19.706Z,83.04
2022-11-19T06:39:20.984Z,82.62
2022-11-19T06:40:19.866Z,82.42
2022-11-19T06:41:19.731Z,82.73
2022-11-19T06:42:19.482Z,82.90
2022-11-19T06:43:19.536Z,82.59
2022-11-19T06:44:19.711Z,82.17
2022-11-19T06:45:19.787Z,81.96
2022-11-19T06:46:19.450Z,82.17
2022-11-19T06:47:19.730Z,81.12
2022-11-19T06:48:19.785Z,81.23
2022-11-19T06:49:20.533Z,81.64
2022-11-19T06:50:19.718Z,82.17
2022-11-19T06:51:19.491Z,82.59
2022-11-19T06:52:20.331Z,82.69
2022-11-19T06:53:19.651Z,82.48
2022-11-19T06:54:19.812Z,81.43
2022-11-19T06:55:20.316Z,80.60
2022-11-19T06:56:19.320Z,80.32
2022-11-19T06:57:19.341Z,80.42
2022-11-19T06:58:19.307Z,80.84
2022-11-19T06:59:19.471Z,81.37
2022-11-19T07:00:19.314Z,81.79
2022-11-19T07:01:19.322Z,81.79
2022-11-19T07:02:21.553Z,82.06
2022-11-19T07:03:19.282Z,82.27
2022-11-19T07:04:19.247Z,82.17
2022-11-19T07:05:19.242Z,82.17
2022-11-19T07:06:19.216Z,82.23
2022-11-19T07:07:19.319Z,80.87
2022-11-19T07:08:19.207Z,80.35
2022-11-19T07:09:19.543Z,80.24
2022-11-19T07:10:19.197Z,80.35
2022-11-19T07:11:19.177Z,80.07
2022-11-19T07:12:19.142Z,79.75
2022-11-19T07:13:19.173Z,79.75
2022-11-19T07:14:19.122Z,79.97
2022-11-19T07:15:19.164Z,80.60
2022-11-19T07:16:19.095Z,81.23
2022-11-19T07:17:19.120Z,80.28
2022-11-19T07:18:19.085Z,80.07
2022-11-19T07:19:19.455Z,80.18
2022-11-19T07:20:19.061Z,80.07
2022-11-19T07:21:19.077Z,79.86
2022-11-19T07:22:19.067Z,79.75
2022-11-19T07:23:19.158Z,80.00
2022-11-19T07:24:20.489Z,80.74
2022-11-19T07:25:19.086Z,81.26
2022-11-19T07:26:18.996Z,81.57
2022-11-19T07:27:19.019Z,81.99
2022-11-19T07:28:18.986Z,82.59
2022-11-19T07:29:19.469Z,82.90
2022-11-19T07:30:18.948Z,82.90
2022-11-19T07:31:18.977Z,82.48
2022-11-19T07:32:18.938Z,81.33
2022-11-19T07:33:18.950Z,80.60
2022-11-19T07:34:18.929Z,81.01
2022-11-19T07:35:18.947Z,81.33
2022-11-19T07:36:18.907Z,81.43
2022-11-19T07:37:18.915Z,81.33
2022-11-19T07:38:19.779Z,80.80
2022-11-19T07:39:20.520Z,81.16
2022-11-19T07:40:20.323Z,81.61
2022-11-19T07:41:18.969Z,82.39
2022-11-19T07:42:18.820Z,83.33
2022-11-19T07:43:18.885Z,84.10
2022-11-19T07:44:18.804Z,85.15
2022-11-19T07:45:18.811Z,85.05
2022-11-19T07:46:18.782Z,84.94
2022-11-19T07:47:18.812Z,84.84
2022-11-19T07:48:18.771Z,84.52
2022-11-19T07:49:20.704Z,84.63
2022-11-19T07:50:19.697Z,84.63
2022-11-19T07:51:20.221Z,84.73
2022-11-19T07:52:18.729Z,84.84
2022-11-19T07:53:18.742Z,85.15
2022-11-19T07:54:18.739Z,85.68
2022-11-19T07:55:19.122Z,85.78
2022-11-19T07:56:19.087Z,85.78
2022-11-19T07:57:18.673Z,85.53
2022-11-19T07:58:18.665Z,85.42
2022-11-19T07:59:19.001Z,84.97
2022-11-19T08:00:18.629Z,84.17
2022-11-19T08:01:18.747Z,84.69
2022-11-19T08:02:18.611Z,84.76
2022-11-19T08:03:18.644Z,84.44
2022-11-19T08:04:18.596Z,84.09
2022-11-19T08:05:18.599Z,83.88
2022-11-19T08:06:18.565Z,83.67
2022-11-19T08:07:18.604Z,83.22
2022-11-19T08:08:18.559Z,82.69
2022-11-19T08:09:18.833Z,82.13
2022-11-19T08:10:20.000Z,81.75
2022-11-19T08:11:18.540Z,82.17
2022-11-19T08:12:18.495Z,82.83
2022-11-19T08:13:18.536Z,82.69
2022-11-19T08:14:18.480Z,81.57
2022-11-19T08:15:18.506Z,81.47
2022-11-19T08:16:18.502Z,81.57
2022-11-19T08:17:18.488Z,82.31
2022-11-19T08:18:18.436Z,82.42
2022-11-19T08:19:18.885Z,81.57
2022-11-19T08:20:18.415Z,81.75
2022-11-19T08:21:19.889Z,81.54
2022-11-19T08:22:18.388Z,80.98
2022-11-19T08:23:18.412Z,79.93
2022-11-19T08:24:18.768Z,79.51
2022-11-19T08:25:18.393Z,79.41
2022-11-19T08:26:18.366Z,78.53
2022-11-19T08:27:18.388Z,78.22
2022-11-19T08:28:18.358Z,78.11
2022-11-19T08:29:18.336Z,78.32
2022-11-19T08:30:18.331Z,78.43
2022-11-19T08:31:18.318Z,78.01
2022-11-19T08:32:18.291Z,77.59
2022-11-19T08:33:18.299Z,77.42
2022-11-19T08:34:18.833Z,77.87
2022-11-19T08:35:18.323Z,79.02
2022-11-19T08:36:18.281Z,80.35
2022-11-19T08:37:18.363Z,80.87
2022-11-19T08:38:18.224Z,80.04
2022-11-19T08:39:18.244Z,78.78
2022-11-19T08:40:18.211Z,78.71
2022-11-19T08:41:18.239Z,79.02
2022-11-19T08:42:18.164Z,79.55
2022-11-19T08:43:18.341Z,79.44
2022-11-19T08:44:18.596Z,79.55
2022-11-19T08:45:20.955Z,79.75
2022-11-19T08:46:18.131Z,79.48
2022-11-19T08:47:18.175Z,79.69
2022-11-19T08:48:18.103Z,79.69
2022-11-19T08:49:18.127Z,79.58
2022-11-19T08:50:18.113Z,79.97
2022-11-19T08:51:18.100Z,80.24
2022-11-19T08:52:18.177Z,79.72
2022-11-19T08:53:18.074Z,79.61
2022-11-19T08:54:18.461Z,80.18
2022-11-19T08:55:18.071Z,80.80
2022-11-19T08:56:18.342Z,81.12
2022-11-19T08:57:18.109Z,80.56
2022-11-19T08:58:19.482Z,80.98
2022-11-19T08:59:19.665Z,80.35
2022-11-19T09:00:17.976Z,79.72
2022-11-19T09:01:18.062Z,80.35
2022-11-19T09:02:17.975Z,80.24
2022-11-19T09:03:17.965Z,79.51
2022-11-19T09:04:18.380Z,79.16
2022-11-19T09:05:17.960Z,78.95
2022-11-19T09:06:17.908Z,79.02
2022-11-19T09:07:17.979Z,77.66
2022-11-19T09:08:17.957Z,76.51
2022-11-19T09:09:17.933Z,76.79
2022-11-19T09:10:18.691Z,75.63
2022-11-19T09:11:17.858Z,75.01
2022-11-19T09:12:17.900Z,74.98
2022-11-19T09:13:17.844Z,76.40
2022-11-19T09:14:18.306Z,74.31
2022-11-19T09:15:17.837Z,74.31
2022-11-19T09:16:17.838Z,73.90
2022-11-19T09:17:17.839Z,73.90
2022-11-19T09:18:18.018Z,74.21
2022-11-19T09:19:19.240Z,73.69
2022-11-19T09:20:18.574Z,73.47
2022-11-19T09:21:18.707Z,74.10
2022-11-19T09:22:17.776Z,73.79
2022-11-19T09:23:17.730Z,73.90
2022-11-19T09:24:18.311Z,74.49
2022-11-19T09:25:17.704Z,74.59
2022-11-19T09:26:17.737Z,74.14
2022-11-19T09:27:17.729Z,73.93
2022-11-19T09:28:17.690Z,72.99
2022-11-19T09:29:17.673Z,72.78
2022-11-19T09:30:17.673Z,72.26
2022-11-19T09:31:17.655Z,71.74
2022-11-19T09:32:22.466Z,71.81
2022-11-19T09:33:18.632Z,71.32
2022-11-19T09:34:17.878Z,71.11
2022-11-19T09:35:17.594Z,71.01
2022-11-19T09:36:17.622Z,71.32
2022-11-19T09:37:17.600Z,71.60
2022-11-19T09:38:17.588Z,71.60
2022-11-19T09:39:17.545Z,71.39
2022-11-19T09:40:17.572Z,71.60
2022-11-19T09:41:17.558Z,71.08
2022-11-19T09:42:17.554Z,70.14
2022-11-19T09:43:17.501Z,69.96
2022-11-19T09:44:18.103Z,70.87
2022-11-19T09:45:17.489Z,71.29
2022-11-19T09:46:17.515Z,71.29
2022-11-19T09:47:17.470Z,71.39
2022-11-19T09:48:17.478Z,70.87
2022-11-19T09:49:17.445Z,70.66
2022-11-19T09:50:17.470Z,70.53
2022-11-19T09:51:17.451Z,70.63
2022-11-19T09:52:17.432Z,70.21
2022-11-19T09:53:17.403Z,69.31
2022-11-19T09:54:17.735Z,69.62
2022-11-19T09:55:17.381Z,70.14
2022-11-19T09:56:17.413Z,70.76
2022-11-19T09:57:17.347Z,70.94
2022-11-19T09:58:18.332Z,71.15
2022-11-19T09:59:18.328Z,70.84
2022-11-19T10:00:17.338Z,70.94
2022-11-19T10:01:17.325Z,71.47
2022-11-19T10:02:17.337Z,71.57
2022-11-19T10:03:17.359Z,71.47
2022-11-19T10:04:17.847Z,71.47
2022-11-19T10:05:17.304Z,71.57
2022-11-19T10:06:17.277Z,69.79
2022-11-19T10:07:17.296Z,71.15
2022-11-19T10:08:17.246Z,71.98
2022-11-19T10:09:17.231Z,72.68
2022-11-19T10:10:17.239Z,72.68
2022-11-19T10:11:17.200Z,71.95
2022-11-19T10:12:17.210Z,71.85
2022-11-19T10:13:17.199Z,70.70
2022-11-19T10:14:17.679Z,70.28
2022-11-19T10:15:17.177Z,69.76
2022-11-19T10:16:17.163Z,70.50
2022-11-19T10:17:17.140Z,69.69
2022-11-19T10:18:17.284Z,71.04
2022-11-19T10:19:17.150Z,71.36
2022-11-19T10:20:17.195Z,70.94
2022-11-19T10:21:17.105Z,71.15
2022-11-19T10:22:17.105Z,71.57
2022-11-19T10:23:17.065Z,71.75
2022-11-19T10:24:17.502Z,71.53
2022-11-19T10:25:17.072Z,70.91
2022-11-19T10:26:17.056Z,72.16
2022-11-19T10:27:17.020Z,72.37
2022-11-19T10:28:17.100Z,71.33
2022-11-19T10:29:17.272Z,71.33
2022-11-19T10:30:17.014Z,71.64
2022-11-19T10:31:16.975Z,70.81
2022-11-19T10:32:16.994Z,70.70
2022-11-19T10:33:16.950Z,69.87
2022-11-19T10:34:16.978Z,69.87
2022-11-19T10:35:16.939Z,70.39
2022-11-19T10:36:16.945Z,70.91
2022-11-19T10:37:16.914Z,71.01
2022-11-19T10:38:16.935Z,70.91
2022-11-19T10:39:17.415Z,71.01
2022-11-19T10:40:16.907Z,70.91
2022-11-19T10:41:16.900Z,71.12
2022-11-19T10:42:16.890Z,70.28
2022-11-19T10:43:22.019Z,69.24
2022-11-19T10:44:19.506Z,70.07
2022-11-19T10:45:18.282Z,70.28
2022-11-19T10:46:16.855Z,70.18
2022-11-19T10:47:16.818Z,69.56
2022-11-19T10:48:16.835Z,69.76
2022-11-19T10:49:17.155Z,70.18
2022-11-19T10:50:16.897Z,70.36
2022-11-19T10:51:16.759Z,70.25
2022-11-19T10:52:16.788Z,69.94
2022-11-19T10:53:16.743Z,69.13
2022-11-19T10:54:16.756Z,69.87
2022-11-19T10:55:16.711Z,69.35
2022-11-19T10:56:16.734Z,69.45
2022-11-19T10:57:16.792Z,69.76
2022-11-19T10:58:16.698Z,70.25
2022-11-19T10:59:16.730Z,69.94
2022-11-19T11:00:16.741Z,69.53
2022-11-19T11:01:16.699Z,69.21
2022-11-19T11:02:16.662Z,69.00
2022-11-19T11:03:16.654Z,67.75
2022-11-19T11:04:16.634Z,67.65
2022-11-19T11:05:16.599Z,67.85
2022-11-19T11:06:16.615Z,68.93
2022-11-19T11:07:16.634Z,69.24
2022-11-19T11:08:16.653Z,69.42
2022-11-19T11:09:18.301Z,69.63
2022-11-19T11:10:16.572Z,69.42
2022-11-19T11:11:18.028Z,69.21
2022-11-19T11:12:18.031Z,69.00
2022-11-19T11:13:16.543Z,69.10
2022-11-19T11:14:16.575Z,68.17
2022-11-19T11:15:16.492Z,68.07
2022-11-19T11:16:16.509Z,68.59
2022-11-19T11:17:16.477Z,69.00
2022-11-19T11:18:16.494Z,69.21
2022-11-19T11:19:16.486Z,69.42
2022-11-19T11:20:16.558Z,69.49
2022-11-19T11:21:16.428Z,69.49
2022-11-19T11:22:16.440Z,68.87
2022-11-19T11:23:16.423Z,68.76
2022-11-19T11:24:16.421Z,69.18
2022-11-19T11:25:16.395Z,69.28
2022-11-19T11:26:16.414Z,68.76
2022-11-19T11:27:16.378Z,68.55
2022-11-19T11:28:16.379Z,68.76
2022-11-19T11:29:18.041Z,68.55
2022-11-19T11:30:16.369Z,69.49
2022-11-19T11:31:16.342Z,68.35
2022-11-19T11:32:16.359Z,68.35
2022-11-19T11:33:16.565Z,68.55
2022-11-19T11:34:16.344Z,68.55
2022-11-19T11:35:16.688Z,68.13
2022-11-19T11:36:16.359Z,67.41
2022-11-19T11:37:16.251Z,66.26
2022-11-19T11:38:16.269Z,67.10
2022-11-19T11:39:16.228Z,67.41
2022-11-19T11:40:16.283Z,67.41
2022-11-19T11:42:17.997Z,66.78
2022-11-19T11:43:16.227Z,66.99
2022-11-19T11:44:16.189Z,67.20
2022-11-19T11:45:16.161Z,66.26
2022-11-19T11:46:16.194Z,65.84
2022-11-19T11:47:16.155Z,66.68
2022-11-19T11:48:16.153Z,66.89
2022-11-19T11:49:16.146Z,66.89
2022-11-19T11:50:16.147Z,66.26
2022-11-19T11:51:16.115Z,66.68
2022-11-19T11:52:17.089Z,66.99
2022-11-19T11:53:17.580Z,66.78
2022-11-19T11:54:18.142Z,66.89
2022-11-19T11:55:16.068Z,66.89
2022-11-19T11:56:16.103Z,67.10
2022-11-19T11:57:16.055Z,67.07
2022-11-19T11:58:16.083Z,67.27
2022-11-19T11:59:16.053Z,67.69
2022-11-19T12:00:16.046Z,68.00
2022-11-19T12:01:16.268Z,68.10
2022-11-19T12:02:16.046Z,67.48
2022-11-19T12:03:15.965Z,67.17
2022-11-19T12:04:15.978Z,67.48
2022-11-19T12:05:15.943Z,68.32
2022-11-19T12:06:15.983Z,68.60
2022-11-19T12:07:15.988Z,68.28
2022-11-19T12:08:15.959Z,68.07
2022-11-19T12:09:15.897Z,67.55
2022-11-19T12:10:15.930Z,66.93
2022-11-19T12:11:15.869Z,67.45
2022-11-19T12:12:15.887Z,66.83
2022-11-19T12:13:15.876Z,66.09
2022-11-19T12:14:15.882Z,66.20
2022-11-19T12:15:15.878Z,66.51
2022-11-19T12:16:15.869Z,66.13
2022-11-19T12:17:15.861Z,66.30
2022-11-19T12:18:15.823Z,66.30
2022-11-19T12:19:17.684Z,66.13
2022-11-19T12:20:17.280Z,65.71
2022-11-19T12:21:15.792Z,65.09
2022-11-19T12:22:15.786Z,64.98
2022-11-19T12:23:15.745Z,66.13
2022-11-19T12:24:15.798Z,65.81
2022-11-19T12:25:15.990Z,65.61
2022-11-19T12:26:15.949Z,65.71
2022-11-19T12:27:16.001Z,65.71
2022-11-19T12:28:15.710Z,65.78
2022-11-19T12:29:15.692Z,66.44
2022-11-19T12:30:15.698Z,66.78
2022-11-19T12:31:15.651Z,66.99
2022-11-19T12:32:15.662Z,67.85
2022-11-19T12:33:15.639Z,69.49
2022-11-19T12:34:15.669Z,68.45
2022-11-19T12:35:15.638Z,66.78
2022-11-19T12:36:15.637Z,66.71
2022-11-19T12:37:15.601Z,67.23
2022-11-19T12:38:15.953Z,67.54
2022-11-19T12:39:17.407Z,67.61
2022-11-19T12:40:17.047Z,67.93
2022-11-19T12:41:15.563Z,67.82
2022-11-19T12:42:15.564Z,67.41
2022-11-19T12:43:15.589Z,66.99
2022-11-19T12:44:15.552Z,66.47
2022-11-19T12:45:15.533Z,65.46
2022-11-19T12:46:15.516Z,66.82
2022-11-19T12:47:15.506Z,66.85
2022-11-19T12:48:15.488Z,67.33
2022-11-19T12:49:15.448Z,67.54
2022-11-19T12:50:15.542Z,68.38
2022-11-19T12:51:15.569Z,68.48
2022-11-19T12:52:15.451Z,68.27
2022-11-19T12:53:15.406Z,67.93
2022-11-19T12:54:17.561Z,67.72